Addy, Washington
Current Conditions -  °F | °C
As of 12:53 AM on Wednesday 22 Oct 2014 (Local Time) from KDEW Reporting Station
Overcast Overcast  
Wind Chill: 40°   Ceiling: 4900
Heat Index: 40°   Visibility: 10mi
Dew Point: 38°   Wind: 0mph
Humidity: 93%   Direction: NA
Pressure: 29.98"   Gusts: NA
Location:  48.36°N, 117.84°W
Report Text: KDEW 220753Z AUTO 00000KT 10SM OVC049 04/03 A2998 RMK AO2 SLP160 T00440033 401440022
Loading
Personal Weather Stations






























Interactive Weather Map
Tropical Storm Tracking
New forecast layout! Learn more

10-Day Weather Forecast

Advertisements
Track Severe Weather on mobile